sensor_id;sensor_type;location;lat;lon;timestamp;P1;durP1;ratioP1;P2;durP2;ratioP2
30380;SDS011;17169;50.966;11.038;2023-08-01T00:01:32;2.63;;;1.42;;
30380;SDS011;17169;50.966;11.038;2023-08-01T00:04:35;8.13;;;1.63;;
30380;SDS011;17169;50.966;11.038;2023-08-01T00:07:38;10.05;;;2.10;;
30380;SDS011;17169;50.966;11.038;2023-08-01T00:10:41;4.10;;;1.67;;
30380;SDS011;17169;50.966;11.038;2023-08-01T00:13:43;3.55;;;1.67;;
30380;SDS011;17169;50.966;11.038;2023-08-01T00:16:46;4.07;;;1.92;;
30380;SDS011;17169;50.966;11.038;2023-08-01T00:19:48;3.35;;;1.30;;
30380;SDS011;17169;50.966;11.038;2023-08-01T00:22:52;3.95;;;1.60;;
30380;SDS011;17169;50.966;11.038;2023-08-01T00:25:54;5.00;;;1.50;;
30380;SDS011;17169;50.966;11.038;2023-08-01T00:28:57;3.10;;;1.60;;
30380;SDS011;17169;50.966;11.038;2023-08-01T00:31:59;3.83;;;1.50;;
30380;SDS011;17169;50.966;11.038;2023-08-01T00:35:02;2.83;;;1.52;;
30380;SDS011;17169;50.966;11.038;2023-08-01T00:38:06;3.30;;;1.40;;
30380;SDS011;17169;50.966;11.038;2023-08-01T00:41:09;2.67;;;1.27;;
30380;SDS011;17169;50.966;11.038;2023-08-01T00:44:11;2.35;;;1.30;;
30380;SDS011;17169;50.966;11.038;2023-08-01T00:47:13;3.90;;;1.50;;
30380;SDS011;17169;50.966;11.038;2023-08-01T00:50:16;2.80;;;1.40;;
30380;SDS011;17169;50.966;11.038;2023-08-01T00:53:22;3.13;;;1.52;;
30380;SDS011;17169;50.966;11.038;2023-08-01T00:56:25;3.27;;;1.60;;
30380;SDS011;17169;50.966;11.038;2023-08-01T00:59:27;3.60;;;1.27;;
30380;SDS011;17169;50.966;11.038;2023-08-01T01:02:30;5.50;;;1.60;;
30380;SDS011;17169;50.966;11.038;2023-08-01T01:05:34;4.30;;;1.33;;
30380;SDS011;17169;50.966;11.038;2023-08-01T01:08:40;2.65;;;1.20;;
30380;SDS011;17169;50.966;11.038;2023-08-01T01:11:43;2.80;;;1.58;;
30380;SDS011;17169;50.966;11.038;2023-08-01T01:14:45;4.85;;;1.77;;
30380;SDS011;17169;50.966;11.038;2023-08-01T01:17:48;2.50;;;1.50;;
30380;SDS011;17169;50.966;11.038;2023-08-01T01:20:52;2.22;;;1.30;;
30380;SDS011;17169;50.966;11.038;2023-08-01T01:23:54;3.63;;;1.40;;
30380;SDS011;17169;50.966;11.038;2023-08-01T01:26:58;2.95;;;1.40;;
30380;SDS011;17169;50.966;11.038;2023-08-01T01:30:01;3.30;;;1.50;;
30380;SDS011;17169;50.966;11.038;2023-08-01T01:33:05;3.38;;;1.60;;
30380;SDS011;17169;50.966;11.038;2023-08-01T01:36:10;4.55;;;1.83;;
30380;SDS011;17169;50.966;11.038;2023-08-01T01:39:12;6.30;;;1.95;;
30380;SDS011;17169;50.966;11.038;2023-08-01T01:42:14;4.45;;;1.80;;
30380;SDS011;17169;50.966;11.038;2023-08-01T01:45:17;2.92;;;1.55;;
30380;SDS011;17169;50.966;11.038;2023-08-01T01:48:19;3.67;;;1.77;;
30380;SDS011;17169;50.966;11.038;2023-08-01T01:51:24;5.43;;;1.55;;
30380;SDS011;17169;50.966;11.038;2023-08-01T01:54:27;3.50;;;1.83;;
30380;SDS011;17169;50.966;11.038;2023-08-01T01:57:29;3.20;;;1.90;;
30380;SDS011;17169;50.966;11.038;2023-08-01T02:00:32;3.47;;;1.75;;
30380;SDS011;17169;50.966;11.038;2023-08-01T02:03:34;5.68;;;2.17;;
30380;SDS011;17169;50.966;11.038;2023-08-01T02:06:38;2.65;;;1.67;;
30380;SDS011;17169;50.966;11.038;2023-08-01T02:09:41;3.92;;;1.60;;
30380;SDS011;17169;50.966;11.038;2023-08-01T02:12:43;2.38;;;1.40;;
30380;SDS011;17169;50.966;11.038;2023-08-01T02:15:45;4.32;;;1.73;;
30380;SDS011;17169;50.966;11.038;2023-08-01T02:18:48;3.92;;;1.85;;
30380;SDS011;17169;50.966;11.038;2023-08-01T02:21:51;3.40;;;1.75;;
30380;SDS011;17169;50.966;11.038;2023-08-01T02:24:54;4.22;;;1.42;;
30380;SDS011;17169;50.966;11.038;2023-08-01T02:27:57;3.95;;;1.70;;
30380;SDS011;17169;50.966;11.038;2023-08-01T02:30:59;3.35;;;1.30;;
30380;SDS011;17169;50.966;11.038;2023-08-01T02:34:01;2.47;;;0.98;;
30380;SDS011;17169;50.966;11.038;2023-08-01T02:37:05;1.60;;;1.00;;
30380;SDS011;17169;50.966;11.038;2023-08-01T02:40:08;6.43;;;1.10;;
30380;SDS011;17169;50.966;11.038;2023-08-01T02:43:11;1.98;;;1.00;;
30380;SDS011;17169;50.966;11.038;2023-08-01T02:46:13;1.95;;;0.90;;
30380;SDS011;17169;50.966;11.038;2023-08-01T02:49:16;1.95;;;1.05;;
30380;SDS011;17169;50.966;11.038;2023-08-01T02:52:19;1.45;;;0.88;;
30380;SDS011;17169;50.966;11.038;2023-08-01T02:55:22;3.72;;;1.92;;
30380;SDS011;17169;50.966;11.038;2023-08-01T02:58:24;2.22;;;1.27;;
30380;SDS011;17169;50.966;11.038;2023-08-01T03:01:26;6.88;;;4.10;;
30380;SDS011;17169;50.966;11.038;2023-08-01T03:04:29;4.13;;;1.90;;
30380;SDS011;17169;50.966;11.038;2023-08-01T03:07:33;1.25;;;0.70;;
30380;SDS011;17169;50.966;11.038;2023-08-01T03:10:35;2.05;;;1.00;;
30380;SDS011;17169;50.966;11.038;2023-08-01T03:13:37;4.93;;;2.83;;
30380;SDS011;17169;50.966;11.038;2023-08-01T03:16:40;3.90;;;1.90;;
30380;SDS011;17169;50.966;11.038;2023-08-01T03:19:42;1.20;;;0.63;;
30380;SDS011;17169;50.966;11.038;2023-08-01T03:22:46;1.55;;;0.80;;
30380;SDS011;17169;50.966;11.038;2023-08-01T03:25:48;2.47;;;0.85;;
30380;SDS011;17169;50.966;11.038;2023-08-01T03:28:51;2.10;;;0.68;;
30380;SDS011;17169;50.966;11.038;2023-08-01T03:31:53;0.70;;;0.60;;
30380;SDS011;17169;50.966;11.038;2023-08-01T03:34:55;1.98;;;0.98;;
30380;SDS011;17169;50.966;11.038;2023-08-01T03:38:00;5.32;;;1.10;;
30380;SDS011;17169;50.966;11.038;2023-08-01T03:41:02;3.10;;;0.70;;
30380;SDS011;17169;50.966;11.038;2023-08-01T03:44:05;7.85;;;1.38;;
30380;SDS011;17169;50.966;11.038;2023-08-01T03:47:07;1.30;;;0.63;;
30380;SDS011;17169;50.966;11.038;2023-08-01T03:50:10;2.85;;;0.82;;
30380;SDS011;17169;50.966;11.038;2023-08-01T03:53:15;2.25;;;0.70;;
30380;SDS011;17169;50.966;11.038;2023-08-01T03:56:18;4.93;;;1.38;;
30380;SDS011;17169;50.966;11.038;2023-08-01T03:59:20;2.35;;;1.10;;
30380;SDS011;17169;50.966;11.038;2023-08-01T04:02:22;4.15;;;1.30;;
30380;SDS011;17169;50.966;11.038;2023-08-01T04:05:25;4.10;;;1.40;;
30380;SDS011;17169;50.966;11.038;2023-08-01T04:08:28;3.50;;;1.05;;
30380;SDS011;17169;50.966;11.038;2023-08-01T04:11:31;4.72;;;1.33;;
30380;SDS011;17169;50.966;11.038;2023-08-01T04:14:33;4.90;;;1.17;;
30380;SDS011;17169;50.966;11.038;2023-08-01T04:17:36;5.50;;;1.10;;
30380;SDS011;17169;50.966;11.038;2023-08-01T04:20:38;3.50;;;0.90;;
30380;SDS011;17169;50.966;11.038;2023-08-01T04:23:42;2.70;;;1.10;;
30380;SDS011;17169;50.966;11.038;2023-08-01T04:26:44;3.42;;;1.52;;
30380;SDS011;17169;50.966;11.038;2023-08-01T04:29:47;4.32;;;1.20;;
30380;SDS011;17169;50.966;11.038;2023-08-01T04:32:50;5.10;;;0.95;;
30380;SDS011;17169;50.966;11.038;2023-08-01T04:35:52;3.75;;;1.35;;
30380;SDS011;17169;50.966;11.038;2023-08-01T04:38:56;2.75;;;1.10;;
30380;SDS011;17169;50.966;11.038;2023-08-01T04:41:58;2.50;;;0.93;;
30380;SDS011;17169;50.966;11.038;2023-08-01T04:45:00;4.68;;;1.17;;
30380;SDS011;17169;50.966;11.038;2023-08-01T04:48:03;6.40;;;1.30;;
30380;SDS011;17169;50.966;11.038;2023-08-01T04:51:06;2.15;;;1.17;;
30380;SDS011;17169;50.966;11.038;2023-08-01T04:54:09;3.53;;;1.10;;
30380;SDS011;17169;50.966;11.038;2023-08-01T04:57:12;5.70;;;1.25;;
30380;SDS011;17169;50.966;11.038;2023-08-01T05:00:14;2.08;;;0.80;;
30380;SDS011;17169;50.966;11.038;2023-08-01T05:03:16;2.22;;;0.90;;
30380;SDS011;17169;50.966;11.038;2023-08-01T05:06:19;2.47;;;1.13;;
30380;SDS011;17169;50.966;11.038;2023-08-01T05:09:24;4.93;;;1.10;;
30380;SDS011;17169;50.966;11.038;2023-08-01T05:12:26;4.35;;;1.10;;
30380;SDS011;17169;50.966;11.038;2023-08-01T05:15:29;2.55;;;1.00;;
30380;SDS011;17169;50.966;11.038;2023-08-01T05:18:31;1.75;;;0.82;;
30380;SDS011;17169;50.966;11.038;2023-08-01T05:21:33;2.50;;;0.68;;
30380;SDS011;17169;50.966;11.038;2023-08-01T05:24:37;1.73;;;0.65;;
30380;SDS011;17169;50.966;11.038;2023-08-01T05:27:39;2.92;;;0.70;;
30380;SDS011;17169;50.966;11.038;2023-08-01T05:30:42;1.48;;;0.68;;
30380;SDS011;17169;50.966;11.038;2023-08-01T05:33:44;3.97;;;0.60;;
30380;SDS011;17169;50.966;11.038;2023-08-01T05:36:46;1.27;;;0.60;;
30380;SDS011;17169;50.966;11.038;2023-08-01T05:39:50;3.03;;;0.70;;
30380;SDS011;17169;50.966;11.038;2023-08-01T05:42:53;4.57;;;0.93;;
30380;SDS011;17169;50.966;11.038;2023-08-01T05:45:55;1.17;;;0.60;;
30380;SDS011;17169;50.966;11.038;2023-08-01T05:48:57;3.20;;;0.85;;
30380;SDS011;17169;50.966;11.038;2023-08-01T05:52:00;3.28;;;0.75;;
30380;SDS011;17169;50.966;11.038;2023-08-01T05:55:04;1.50;;;0.40;;
30380;SDS011;17169;50.966;11.038;2023-08-01T05:58:07;4.20;;;0.88;;
30380;SDS011;17169;50.966;11.038;2023-08-01T06:01:10;3.50;;;0.80;;
30380;SDS011;17169;50.966;11.038;2023-08-01T06:04:13;0.60;;;0.40;;
30380;SDS011;17169;50.966;11.038;2023-08-01T06:07:15;1.90;;;0.90;;
30380;SDS011;17169;50.966;11.038;2023-08-01T06:10:24;1.42;;;0.60;;
30380;SDS011;17169;50.966;11.038;2023-08-01T06:13:27;4.60;;;0.60;;
30380;SDS011;17169;50.966;11.038;2023-08-01T06:16:29;1.15;;;0.47;;
30380;SDS011;17169;50.966;11.038;2023-08-01T06:19:31;1.75;;;0.40;;
30380;SDS011;17169;50.966;11.038;2023-08-01T06:22:34;1.40;;;0.70;;
30380;SDS011;17169;50.966;11.038;2023-08-01T06:25:38;3.58;;;1.00;;
30380;SDS011;17169;50.966;11.038;2023-08-01T06:28:40;2.63;;;1.05;;
30380;SDS011;17169;50.966;11.038;2023-08-01T06:31:42;2.65;;;0.98;;
30380;SDS011;17169;50.966;11.038;2023-08-01T06:34:45;2.25;;;1.17;;
30380;SDS011;17169;50.966;11.038;2023-08-01T06:37:47;2.40;;;0.90;;
30380;SDS011;17169;50.966;11.038;2023-08-01T06:40:51;2.45;;;1.15;;
30380;SDS011;17169;50.966;11.038;2023-08-01T06:43:53;7.30;;;1.10;;
30380;SDS011;17169;50.966;11.038;2023-08-01T06:46:56;4.05;;;1.05;;
30380;SDS011;17169;50.966;11.038;2023-08-01T06:49:58;5.97;;;1.10;;
30380;SDS011;17169;50.966;11.038;2023-08-01T06:53:00;3.83;;;1.10;;
30380;SDS011;17169;50.966;11.038;2023-08-01T06:56:04;1.45;;;0.80;;
30380;SDS011;17169;50.966;11.038;2023-08-01T06:59:07;1.98;;;0.75;;
30380;SDS011;17169;50.966;11.038;2023-08-01T07:02:09;3.15;;;0.70;;
30380;SDS011;17169;50.966;11.038;2023-08-01T07:05:12;2.55;;;0.80;;
30380;SDS011;17169;50.966;11.038;2023-08-01T07:08:14;1.55;;;0.90;;
30380;SDS011;17169;50.966;11.038;2023-08-01T07:11:18;1.77;;;0.80;;
30380;SDS011;17169;50.966;11.038;2023-08-01T07:14:20;2.15;;;0.80;;
30380;SDS011;17169;50.966;11.038;2023-08-01T07:17:23;1.40;;;0.50;;
30380;SDS011;17169;50.966;11.038;2023-08-01T07:20:25;1.65;;;0.52;;
30380;SDS011;17169;50.966;11.038;2023-08-01T07:23:27;1.38;;;0.40;;
30380;SDS011;17169;50.966;11.038;2023-08-01T07:26:31;1.38;;;0.70;;
30380;SDS011;17169;50.966;11.038;2023-08-01T07:29:34;4.50;;;0.88;;
30380;SDS011;17169;50.966;11.038;2023-08-01T07:32:36;1.45;;;0.50;;
30380;SDS011;17169;50.966;11.038;2023-08-01T07:35:38;1.52;;;0.60;;
30380;SDS011;17169;50.966;11.038;2023-08-01T07:38:41;5.63;;;0.75;;
30380;SDS011;17169;50.966;11.038;2023-08-01T07:41:44;0.85;;;0.60;;
30380;SDS011;17169;50.966;11.038;2023-08-01T07:44:47;1.65;;;0.73;;
30380;SDS011;17169;50.966;11.038;2023-08-01T07:47:49;1.02;;;0.52;;
30380;SDS011;17169;50.966;11.038;2023-08-01T07:50:52;2.40;;;0.50;;
30380;SDS011;17169;50.966;11.038;2023-08-01T07:53:54;1.55;;;0.73;;
30380;SDS011;17169;50.966;11.038;2023-08-01T07:56:58;3.75;;;0.90;;
30380;SDS011;17169;50.966;11.038;2023-08-01T08:00:00;2.88;;;1.20;;
30380;SDS011;17169;50.966;11.038;2023-08-01T08:03:04;1.83;;;0.85;;
30380;SDS011;17169;50.966;11.038;2023-08-01T08:09:10;2.33;;;1.00;;
30380;SDS011;17169;50.966;11.038;2023-08-01T08:12:14;1.75;;;0.90;;
30380;SDS011;17169;50.966;11.038;2023-08-01T08:15:16;7.40;;;1.25;;
30380;SDS011;17169;50.966;11.038;2023-08-01T08:18:20;3.42;;;1.05;;
30380;SDS011;17169;50.966;11.038;2023-08-01T08:21:22;2.10;;;0.93;;
30380;SDS011;17169;50.966;11.038;2023-08-01T08:24:25;1.83;;;0.60;;
30380;SDS011;17169;50.966;11.038;2023-08-01T08:27:28;3.53;;;0.80;;
30380;SDS011;17169;50.966;11.038;2023-08-01T08:30:31;2.40;;;1.02;;
30380;SDS011;17169;50.966;11.038;2023-08-01T08:33:33;2.53;;;0.70;;
30380;SDS011;17169;50.966;11.038;2023-08-01T08:36:36;3.35;;;0.80;;
30380;SDS011;17169;50.966;11.038;2023-08-01T08:42:49;2.83;;;1.15;;
30380;SDS011;17169;50.966;11.038;2023-08-01T08:45:56;2.03;;;0.65;;
30380;SDS011;17169;50.966;11.038;2023-08-01T08:49:01;1.63;;;0.80;;
30380;SDS011;17169;50.966;11.038;2023-08-01T08:52:04;3.65;;;1.13;;
30380;SDS011;17169;50.966;11.038;2023-08-01T08:55:07;3.03;;;1.10;;
30380;SDS011;17169;50.966;11.038;2023-08-01T08:58:11;2.72;;;1.20;;
30380;SDS011;17169;50.966;11.038;2023-08-01T09:01:14;2.83;;;1.80;;
30380;SDS011;17169;50.966;11.038;2023-08-01T09:04:16;3.65;;;1.65;;
30380;SDS011;17169;50.966;11.038;2023-08-01T09:07:19;2.90;;;1.70;;
30380;SDS011;17169;50.966;11.038;2023-08-01T09:10:25;2.80;;;1.33;;
30380;SDS011;17169;50.966;11.038;2023-08-01T09:13:29;3.67;;;1.67;;
30380;SDS011;17169;50.966;11.038;2023-08-01T09:16:32;3.17;;;1.90;;
30380;SDS011;17169;50.966;11.038;2023-08-01T09:19:35;3.38;;;1.83;;
30380;SDS011;17169;50.966;11.038;2023-08-01T09:22:41;3.53;;;2.40;;
30380;SDS011;17169;50.966;11.038;2023-08-01T09:25:44;5.07;;;1.98;;
30380;SDS011;17169;50.966;11.038;2023-08-01T09:28:56;3.17;;;2.20;;
30380;SDS011;17169;50.966;11.038;2023-08-01T09:31:58;5.22;;;2.60;;
30380;SDS011;17169;50.966;11.038;2023-08-01T09:35:01;4.75;;;2.78;;
30380;SDS011;17169;50.966;11.038;2023-08-01T09:38:04;8.55;;;2.90;;
30380;SDS011;17169;50.966;11.038;2023-08-01T09:41:06;6.18;;;3.00;;
30380;SDS011;17169;50.966;11.038;2023-08-01T09:44:20;5.35;;;2.88;;
30380;SDS011;17169;50.966;11.038;2023-08-01T09:47:22;5.03;;;2.78;;
30380;SDS011;17169;50.966;11.038;2023-08-01T09:50:25;4.53;;;2.53;;
30380;SDS011;17169;50.966;11.038;2023-08-01T09:53:27;4.72;;;2.72;;
30380;SDS011;17169;50.966;11.038;2023-08-01T09:56:29;4.28;;;2.40;;
30380;SDS011;17169;50.966;11.038;2023-08-01T09:59:33;4.13;;;2.85;;
30380;SDS011;17169;50.966;11.038;2023-08-01T10:02:38;4.72;;;2.60;;
30380;SDS011;17169;50.966;11.038;2023-08-01T10:05:44;5.10;;;2.42;;
30380;SDS011;17169;50.966;11.038;2023-08-01T10:08:47;4.93;;;2.25;;
30380;SDS011;17169;50.966;11.038;2023-08-01T10:11:51;3.35;;;2.20;;
30380;SDS011;17169;50.966;11.038;2023-08-01T10:14:55;5.25;;;2.33;;
30380;SDS011;17169;50.966;11.038;2023-08-01T10:17:58;3.40;;;2.00;;
30380;SDS011;17169;50.966;11.038;2023-08-01T10:21:00;4.45;;;2.00;;
30380;SDS011;17169;50.966;11.038;2023-08-01T10:24:03;3.58;;;2.03;;
30380;SDS011;17169;50.966;11.038;2023-08-01T10:27:11;3.53;;;2.30;;
30380;SDS011;17169;50.966;11.038;2023-08-01T10:30:25;4.22;;;1.90;;
30380;SDS011;17169;50.966;11.038;2023-08-01T10:33:32;4.15;;;2.08;;
30380;SDS011;17169;50.966;11.038;2023-08-01T10:36:34;5.22;;;2.00;;
30380;SDS011;17169;50.966;11.038;2023-08-01T10:39:39;3.30;;;1.93;;
30380;SDS011;17169;50.966;11.038;2023-08-01T10:42:42;4.95;;;2.20;;
30380;SDS011;17169;50.966;11.038;2023-08-01T10:45:47;3.30;;;2.05;;
30380;SDS011;17169;50.966;11.038;2023-08-01T10:48:50;5.35;;;2.13;;
30380;SDS011;17169;50.966;11.038;2023-08-01T10:51:53;2.60;;;1.80;;
30380;SDS011;17169;50.966;11.038;2023-08-01T10:54:56;4.00;;;1.80;;
30380;SDS011;17169;50.966;11.038;2023-08-01T10:58:00;3.73;;;2.10;;
30380;SDS011;17169;50.966;11.038;2023-08-01T11:01:04;6.38;;;2.33;;
30380;SDS011;17169;50.966;11.038;2023-08-01T11:04:13;7.35;;;2.15;;
30380;SDS011;17169;50.966;11.038;2023-08-01T11:07:16;6.32;;;1.98;;
30380;SDS011;17169;50.966;11.038;2023-08-01T11:10:18;4.70;;;1.70;;
30380;SDS011;17169;50.966;11.038;2023-08-01T11:13:20;5.47;;;1.70;;
30380;SDS011;17169;50.966;11.038;2023-08-01T11:16:24;6.05;;;1.85;;
30380;SDS011;17169;50.966;11.038;2023-08-01T11:19:28;3.13;;;1.48;;
30380;SDS011;17169;50.966;11.038;2023-08-01T11:22:31;4.90;;;1.90;;
30380;SDS011;17169;50.966;11.038;2023-08-01T11:25:34;6.57;;;2.75;;
30380;SDS011;17169;50.966;11.038;2023-08-01T11:28:37;3.78;;;1.70;;
30380;SDS011;17169;50.966;11.038;2023-08-01T11:31:41;5.15;;;1.85;;
30380;SDS011;17169;50.966;11.038;2023-08-01T11:34:54;4.20;;;2.10;;
30380;SDS011;17169;50.966;11.038;2023-08-01T11:37:57;6.03;;;1.83;;
30380;SDS011;17169;50.966;11.038;2023-08-01T11:41:00;4.82;;;2.00;;
30380;SDS011;17169;50.966;11.038;2023-08-01T11:44:03;3.15;;;1.60;;
30380;SDS011;17169;50.966;11.038;2023-08-01T11:47:11;5.93;;;1.80;;
30380;SDS011;17169;50.966;11.038;2023-08-01T11:50:20;3.83;;;1.83;;
30380;SDS011;17169;50.966;11.038;2023-08-01T11:53:23;5.20;;;1.92;;
30380;SDS011;17169;50.966;11.038;2023-08-01T11:56:25;6.75;;;1.80;;
30380;SDS011;17169;50.966;11.038;2023-08-01T11:59:28;7.90;;;1.95;;
30380;SDS011;17169;50.966;11.038;2023-08-01T12:02:31;3.45;;;1.70;;
30380;SDS011;17169;50.966;11.038;2023-08-01T12:05:34;6.50;;;1.67;;
30380;SDS011;17169;50.966;11.038;2023-08-01T12:08:36;7.35;;;2.13;;
30380;SDS011;17169;50.966;11.038;2023-08-01T12:11:40;6.68;;;2.00;;
30380;SDS011;17169;50.966;11.038;2023-08-01T12:14:43;3.88;;;1.80;;
30380;SDS011;17169;50.966;11.038;2023-08-01T12:17:47;4.75;;;2.05;;
30380;SDS011;17169;50.966;11.038;2023-08-01T12:20:49;5.43;;;1.90;;
30380;SDS011;17169;50.966;11.038;2023-08-01T12:23:51;2.85;;;1.70;;
30380;SDS011;17169;50.966;11.038;2023-08-01T12:26:54;4.25;;;2.05;;
30380;SDS011;17169;50.966;11.038;2023-08-01T12:29:56;4.00;;;2.13;;
30380;SDS011;17169;50.966;11.038;2023-08-01T12:33:00;4.10;;;2.00;;
30380;SDS011;17169;50.966;11.038;2023-08-01T12:36:03;3.10;;;1.95;;
30380;SDS011;17169;50.966;11.038;2023-08-01T12:39:05;4.18;;;2.10;;
30380;SDS011;17169;50.966;11.038;2023-08-01T12:42:11;4.88;;;2.30;;
30380;SDS011;17169;50.966;11.038;2023-08-01T12:45:13;7.05;;;2.42;;
30380;SDS011;17169;50.966;11.038;2023-08-01T12:48:17;4.28;;;2.20;;
30380;SDS011;17169;50.966;11.038;2023-08-01T12:51:19;4.20;;;2.13;;
30380;SDS011;17169;50.966;11.038;2023-08-01T12:54:22;5.75;;;2.30;;
30380;SDS011;17169;50.966;11.038;2023-08-01T12:57:25;4.75;;;2.35;;
30380;SDS011;17169;50.966;11.038;2023-08-01T13:00:27;5.18;;;2.08;;
30380;SDS011;17169;50.966;11.038;2023-08-01T13:03:32;4.97;;;1.90;;
30380;SDS011;17169;50.966;11.038;2023-08-01T13:06:34;4.63;;;2.17;;
30380;SDS011;17169;50.966;11.038;2023-08-01T13:09:37;7.43;;;2.15;;
30380;SDS011;17169;50.966;11.038;2023-08-01T13:12:39;5.53;;;1.92;;
30380;SDS011;17169;50.966;11.038;2023-08-01T13:15:41;4.57;;;2.08;;
30380;SDS011;17169;50.966;11.038;2023-08-01T13:18:45;6.85;;;2.20;;
30380;SDS011;17169;50.966;11.038;2023-08-01T13:21:48;4.45;;;2.35;;
30380;SDS011;17169;50.966;11.038;2023-08-01T13:24:51;3.13;;;1.75;;
30380;SDS011;17169;50.966;11.038;2023-08-01T13:27:53;4.85;;;2.50;;
30380;SDS011;17169;50.966;11.038;2023-08-01T13:30:55;7.20;;;2.13;;
30380;SDS011;17169;50.966;11.038;2023-08-01T13:33:59;4.30;;;2.00;;
30380;SDS011;17169;50.966;11.038;2023-08-01T13:37:01;5.25;;;2.95;;
30380;SDS011;17169;50.966;11.038;2023-08-01T13:40:05;5.78;;;2.63;;
30380;SDS011;17169;50.966;11.038;2023-08-01T13:43:08;6.13;;;2.55;;
30380;SDS011;17169;50.966;11.038;2023-08-01T13:46:12;4.22;;;2.67;;
30380;SDS011;17169;50.966;11.038;2023-08-01T13:52:18;5.00;;;2.50;;
30380;SDS011;17169;50.966;11.038;2023-08-01T13:55:21;2.97;;;2.00;;
30380;SDS011;17169;50.966;11.038;2023-08-01T13:58:23;7.63;;;2.72;;
30380;SDS011;17169;50.966;11.038;2023-08-01T14:01:26;3.97;;;2.30;;
30380;SDS011;17169;50.966;11.038;2023-08-01T14:04:29;4.15;;;2.22;;
30380;SDS011;17169;50.966;11.038;2023-08-01T14:07:34;1.98;;;1.25;;
30380;SDS011;17169;50.966;11.038;2023-08-01T14:10:36;3.25;;;1.23;;
30380;SDS011;17169;50.966;11.038;2023-08-01T14:13:39;3.03;;;1.20;;
30380;SDS011;17169;50.966;11.038;2023-08-01T14:16:41;2.13;;;1.48;;
30380;SDS011;17169;50.966;11.038;2023-08-01T14:19:46;4.95;;;1.40;;
30380;SDS011;17169;50.966;11.038;2023-08-01T14:22:48;3.72;;;1.48;;
30380;SDS011;17169;50.966;11.038;2023-08-01T14:25:50;3.80;;;1.70;;
30380;SDS011;17169;50.966;11.038;2023-08-01T14:28:53;2.90;;;1.42;;
30380;SDS011;17169;50.966;11.038;2023-08-01T14:31:55;3.35;;;1.60;;
30380;SDS011;17169;50.966;11.038;2023-08-01T14:34:59;7.20;;;1.63;;
30380;SDS011;17169;50.966;11.038;2023-08-01T14:38:01;3.85;;;1.27;;
30380;SDS011;17169;50.966;11.038;2023-08-01T14:41:04;3.05;;;1.45;;
30380;SDS011;17169;50.966;11.038;2023-08-01T14:44:06;4.63;;;1.38;;
30380;SDS011;17169;50.966;11.038;2023-08-01T14:47:09;3.45;;;1.52;;
30380;SDS011;17169;50.966;11.038;2023-08-01T14:50:13;4.35;;;1.45;;
30380;SDS011;17169;50.966;11.038;2023-08-01T14:53:16;2.80;;;1.40;;
30380;SDS011;17169;50.966;11.038;2023-08-01T14:56:19;6.13;;;2.38;;
30380;SDS011;17169;50.966;11.038;2023-08-01T14:59:21;4.68;;;1.70;;
30380;SDS011;17169;50.966;11.038;2023-08-01T15:02:23;3.35;;;1.58;;
30380;SDS011;17169;50.966;11.038;2023-08-01T15:05:29;4.32;;;2.75;;
30380;SDS011;17169;50.966;11.038;2023-08-01T15:08:31;4.10;;;1.67;;
30380;SDS011;17169;50.966;11.038;2023-08-01T15:11:34;2.92;;;1.40;;
30380;SDS011;17169;50.966;11.038;2023-08-01T15:14:37;2.53;;;1.33;;
30380;SDS011;17169;50.966;11.038;2023-08-01T15:17:39;3.15;;;1.50;;
30380;SDS011;17169;50.966;11.038;2023-08-01T15:20:43;3.08;;;1.40;;
30380;SDS011;17169;50.966;11.038;2023-08-01T15:23:46;3.50;;;1.50;;
30380;SDS011;17169;50.966;11.038;2023-08-01T15:26:48;4.00;;;1.50;;
30380;SDS011;17169;50.966;11.038;2023-08-01T15:29:50;1.75;;;1.20;;
30380;SDS011;17169;50.966;11.038;2023-08-01T15:32:53;3.80;;;1.50;;
30380;SDS011;17169;50.966;11.038;2023-08-01T15:35:58;3.95;;;1.80;;
30380;SDS011;17169;50.966;11.038;2023-08-01T15:39:02;2.78;;;1.42;;
30380;SDS011;17169;50.966;11.038;2023-08-01T15:42:05;5.05;;;1.60;;
30380;SDS011;17169;50.966;11.038;2023-08-01T15:45:08;3.08;;;1.83;;
30380;SDS011;17169;50.966;11.038;2023-08-01T15:48:10;4.45;;;2.35;;
30380;SDS011;17169;50.966;11.038;2023-08-01T15:51:14;3.13;;;1.92;;
30380;SDS011;17169;50.966;11.038;2023-08-01T15:54:16;3.83;;;2.13;;
30380;SDS011;17169;50.966;11.038;2023-08-01T15:57:19;3.50;;;1.65;;
30380;SDS011;17169;50.966;11.038;2023-08-01T16:00:21;4.75;;;1.70;;
30380;SDS011;17169;50.966;11.038;2023-08-01T16:03:24;2.97;;;1.63;;
30380;SDS011;17169;50.966;11.038;2023-08-01T16:06:28;3.88;;;1.50;;
30380;SDS011;17169;50.966;11.038;2023-08-01T16:09:30;2.75;;;1.23;;
30380;SDS011;17169;50.966;11.038;2023-08-01T16:12:32;3.03;;;1.30;;
30380;SDS011;17169;50.966;11.038;2023-08-01T16:15:35;4.10;;;1.63;;
30380;SDS011;17169;50.966;11.038;2023-08-01T16:18:38;2.97;;;1.38;;
30380;SDS011;17169;50.966;11.038;2023-08-01T16:21:41;5.55;;;1.65;;
30380;SDS011;17169;50.966;11.038;2023-08-01T16:24:44;10.00;;;1.57;;
30380;SDS011;17169;50.966;11.038;2023-08-01T16:27:47;2.45;;;1.30;;
30380;SDS011;17169;50.966;11.038;2023-08-01T16:30:50;3.97;;;1.48;;
30380;SDS011;17169;50.966;11.038;2023-08-01T16:33:52;3.03;;;1.63;;
30380;SDS011;17169;50.966;11.038;2023-08-01T16:36:56;3.75;;;1.30;;
30380;SDS011;17169;50.966;11.038;2023-08-01T16:39:58;3.10;;;1.50;;
30380;SDS011;17169;50.966;11.038;2023-08-01T16:43:01;7.45;;;1.50;;
30380;SDS011;17169;50.966;11.038;2023-08-01T16:46:05;4.25;;;1.38;;
30380;SDS011;17169;50.966;11.038;2023-08-01T16:49:07;2.70;;;1.30;;
30380;SDS011;17169;50.966;11.038;2023-08-01T16:52:11;5.13;;;1.65;;
30380;SDS011;17169;50.966;11.038;2023-08-01T16:55:13;4.97;;;1.65;;
30380;SDS011;17169;50.966;11.038;2023-08-01T16:58:16;6.22;;;1.55;;
30380;SDS011;17169;50.966;11.038;2023-08-01T17:01:19;3.38;;;1.55;;
30380;SDS011;17169;50.966;11.038;2023-08-01T17:04:21;8.60;;;1.90;;
30380;SDS011;17169;50.966;11.038;2023-08-01T17:07:25;3.67;;;1.50;;
30380;SDS011;17169;50.966;11.038;2023-08-01T17:10:27;10.77;;;1.60;;
30380;SDS011;17169;50.966;11.038;2023-08-01T17:13:31;3.65;;;1.70;;
30380;SDS011;17169;50.966;11.038;2023-08-01T17:16:35;4.57;;;1.42;;
30380;SDS011;17169;50.966;11.038;2023-08-01T17:19:37;5.53;;;1.70;;
30380;SDS011;17169;50.966;11.038;2023-08-01T17:22:41;5.88;;;2.25;;
30380;SDS011;17169;50.966;11.038;2023-08-01T17:25:43;5.63;;;2.22;;
30380;SDS011;17169;50.966;11.038;2023-08-01T17:28:45;5.20;;;2.28;;
30380;SDS011;17169;50.966;11.038;2023-08-01T17:31:48;3.35;;;1.60;;
30380;SDS011;17169;50.966;11.038;2023-08-01T17:34:51;2.40;;;1.33;;
30380;SDS011;17169;50.966;11.038;2023-08-01T17:37:54;5.40;;;1.63;;
30380;SDS011;17169;50.966;11.038;2023-08-01T17:40:57;3.35;;;1.50;;
30380;SDS011;17169;50.966;11.038;2023-08-01T17:44:17;2.67;;;1.35;;
30380;SDS011;17169;50.966;11.038;2023-08-01T17:47:19;6.68;;;1.60;;
30380;SDS011;17169;50.966;11.038;2023-08-01T17:50:22;3.15;;;1.23;;
30380;SDS011;17169;50.966;11.038;2023-08-01T17:53:26;6.07;;;1.38;;
30380;SDS011;17169;50.966;11.038;2023-08-01T17:56:28;4.50;;;1.90;;
30380;SDS011;17169;50.966;11.038;2023-08-01T17:59:30;3.47;;;1.70;;
30380;SDS011;17169;50.966;11.038;2023-08-01T18:02:33;6.18;;;1.60;;
30380;SDS011;17169;50.966;11.038;2023-08-01T18:05:35;2.97;;;1.45;;
30380;SDS011;17169;50.966;11.038;2023-08-01T18:08:42;9.75;;;1.88;;
30380;SDS011;17169;50.966;11.038;2023-08-01T18:11:45;4.38;;;1.50;;
30380;SDS011;17169;50.966;11.038;2023-08-01T18:14:47;5.68;;;1.80;;